Terminal Aerodrome Forecast
Issued by NWS

Home | Current Version | Previous Version | Graphics & Text | Print | Product List | Glossary On
Versions: 1 2 3 4 5 6 7 8 9 10 11 12 13 14 15 16 17
000
FTUS43 KBIS 211700
TAFMOT
TAF
KMOT 211721Z 2118/2218 05011KT P6SM BKN100
      TEMPO 2121/2201 VRB30G40KT 3SM +TSRAGR OVC040CB
     FM220100 33012KT P6SM -TSRA OVC050CB
     FM220300 35009KT P6SM BKN050=

USA.gov is the U.S. government's official web portal to all federal, state and local government web resources and services.